Troy, North Carolina
Current Conditions -  °F | °C
As of 1:15 PM on Sunday 25 Jan 2015 (Local Time) from KVUJ Reporting Station
Clear Clear  
Wind Chill: 54°   Ceiling: Unl
Heat Index: 54°   Visibility: 10mi
Dew Point: 35°   Wind: 8mph
Humidity: 48%   Direction: 180°S
Pressure: 29.91"   Gusts: NA
Location:  35.36°N, 79.89°W
Report Text: KVUJ 251815Z AUTO 18007KT 10SM CLR 12/01 A2991 RMK AO2 T01230014
Loading
Personal Weather Stations






























Interactive Weather Map New forecast layout! Learn more

10-Day Weather Forecast

Advertisements
Track Severe Weather on mobile